createdAt,value
2023-05-15T00:00:06.859Z,14.68
2023-05-15T00:01:06.895Z,14.68
2023-05-15T00:02:06.932Z,14.68
2023-05-15T00:03:07.017Z,14.64
2023-05-15T00:04:06.952Z,14.65
2023-05-15T00:05:07.137Z,14.62
2023-05-15T00:06:07.002Z,14.68
2023-05-15T00:07:07.032Z,14.58
2023-05-15T00:08:07.055Z,14.55
2023-05-15T00:09:07.077Z,14.61
2023-05-15T00:10:07.100Z,14.51
2023-05-15T00:11:07.153Z,14.58
2023-05-15T00:12:07.147Z,14.47
2023-05-15T00:13:07.180Z,14.37
2023-05-15T00:14:07.200Z,14.36
2023-05-15T00:15:07.232Z,14.45
2023-05-15T00:16:07.323Z,14.42
2023-05-15T00:17:07.289Z,14.40
2023-05-15T00:18:07.371Z,14.39
2023-05-15T00:19:07.374Z,14.32
2023-05-15T00:20:07.345Z,14.43
2023-05-15T00:21:07.463Z,14.40
2023-05-15T00:22:07.400Z,14.45
2023-05-15T00:23:07.439Z,14.33
2023-05-15T00:24:07.445Z,14.35
2023-05-15T00:25:07.463Z,14.25
2023-05-15T00:26:07.493Z,14.32
2023-05-15T00:27:07.530Z,14.29
2023-05-15T00:28:07.542Z,14.21
2023-05-15T00:29:07.590Z,14.29
2023-05-15T00:30:07.606Z,14.21
2023-05-15T00:31:07.680Z,14.22
2023-05-15T00:32:07.657Z,14.21
2023-05-15T00:33:07.670Z,14.25
2023-05-15T00:34:07.695Z,14.21
2023-05-15T00:35:07.743Z,14.18
2023-05-15T00:36:07.748Z,14.14
2023-05-15T00:37:07.768Z,14.17
2023-05-15T00:38:07.793Z,14.09
2023-05-15T00:39:07.817Z,14.14
2023-05-15T00:40:07.873Z,14.04
2023-05-15T00:41:07.865Z,13.99
2023-05-15T00:42:07.891Z,14.00
2023-05-15T00:43:07.914Z,14.06
2023-05-15T00:44:07.940Z,13.99
2023-05-15T00:45:07.966Z,13.91
2023-05-15T00:46:07.992Z,13.95
2023-05-15T00:47:08.032Z,13.92
2023-05-15T00:48:08.034Z,13.87
2023-05-15T00:49:08.066Z,13.91
2023-05-15T00:50:08.090Z,13.95
2023-05-15T00:51:08.104Z,13.95
2023-05-15T00:52:08.140Z,13.89
2023-05-15T00:53:08.154Z,13.84
2023-05-15T00:54:08.260Z,13.91
2023-05-15T00:55:08.213Z,13.78
2023-05-15T00:56:08.239Z,13.79
2023-05-15T00:57:08.253Z,13.77
2023-05-15T00:58:08.282Z,13.81
2023-05-15T00:59:08.301Z,13.70
2023-05-15T01:00:08.352Z,13.73
2023-05-15T01:01:08.779Z,13.78
2023-05-15T01:02:08.452Z,13.78
2023-05-15T01:03:08.469Z,13.75
2023-05-15T01:04:08.430Z,13.66
2023-05-15T01:05:08.445Z,13.63
2023-05-15T01:06:08.489Z,13.57
2023-05-15T01:07:08.502Z,13.60
2023-05-15T01:08:08.516Z,13.59
2023-05-15T01:09:08.552Z,13.52
2023-05-15T01:10:08.580Z,13.48
2023-05-15T01:11:08.596Z,13.45
2023-05-15T01:12:08.614Z,13.41
2023-05-15T01:13:08.637Z,13.42
2023-05-15T01:14:08.692Z,13.41
2023-05-15T01:15:08.681Z,13.39
2023-05-15T01:16:08.723Z,13.46
2023-05-15T01:17:08.737Z,13.42
2023-05-15T01:18:08.845Z,13.42
2023-05-15T01:19:08.878Z,13.41
2023-05-15T01:20:08.815Z,13.42
2023-05-15T01:21:08.827Z,13.41
2023-05-15T01:22:08.857Z,13.28
2023-05-15T01:23:08.881Z,13.20
2023-05-15T01:24:08.899Z,13.22
2023-05-15T01:25:08.921Z,13.29
2023-05-15T01:26:08.953Z,13.17
2023-05-15T01:27:08.973Z,13.12
2023-05-15T01:28:08.993Z,13.19
2023-05-15T01:29:09.029Z,13.05
2023-05-15T01:30:09.049Z,13.04
2023-05-15T01:31:09.066Z,13.01
2023-05-15T01:32:09.190Z,13.07
2023-05-15T01:33:09.219Z,13.04
2023-05-15T01:34:09.143Z,13.04
2023-05-15T01:35:09.167Z,13.05
2023-05-15T01:36:09.183Z,13.04
2023-05-15T01:37:09.217Z,13.04
2023-05-15T01:38:09.232Z,13.14
2023-05-15T01:39:09.258Z,13.03
2023-05-15T01:40:09.275Z,13.07
2023-05-15T01:41:09.299Z,13.05
2023-05-15T01:42:09.339Z,13.00
2023-05-15T01:43:09.353Z,13.08
2023-05-15T01:44:09.377Z,13.07
2023-05-15T01:45:09.412Z,13.03
2023-05-15T01:46:09.520Z,13.05
2023-05-15T01:47:09.560Z,13.04
2023-05-15T01:48:09.488Z,13.07
2023-05-15T01:49:09.550Z,13.10
2023-05-15T01:50:09.552Z,13.05
2023-05-15T01:51:09.620Z,12.95
2023-05-15T01:52:09.612Z,13.04
2023-05-15T01:53:09.584Z,13.04
2023-05-15T01:54:09.608Z,13.03
2023-05-15T01:55:09.649Z,13.07
2023-05-15T01:56:09.672Z,12.93
2023-05-15T01:57:09.688Z,12.87
2023-05-15T01:58:09.704Z,13.01
2023-05-15T01:59:09.727Z,12.96
2023-05-15T02:00:09.792Z,13.01
2023-05-15T02:01:09.782Z,13.01
2023-05-15T02:02:09.836Z,12.97
2023-05-15T02:03:09.962Z,12.93
2023-05-15T02:04:09.866Z,12.92
2023-05-15T02:05:09.868Z,12.96
2023-05-15T02:06:09.888Z,12.95
2023-05-15T02:07:09.913Z,12.89
2023-05-15T02:08:09.941Z,12.92
2023-05-15T02:09:09.964Z,12.89
2023-05-15T02:10:09.987Z,12.86
2023-05-15T02:11:10.008Z,12.83
2023-05-15T02:12:10.032Z,12.87
2023-05-15T02:13:10.052Z,12.86
2023-05-15T02:14:10.081Z,12.82
2023-05-15T02:15:10.105Z,12.72
2023-05-15T02:16:10.150Z,12.71
2023-05-15T02:17:10.162Z,12.67
2023-05-15T02:18:10.176Z,12.64
2023-05-15T02:19:10.276Z,12.65
2023-05-15T02:20:10.219Z,12.64
2023-05-15T02:21:10.244Z,12.62
2023-05-15T02:22:10.271Z,12.54
2023-05-15T02:23:10.294Z,12.67
2023-05-15T02:24:10.317Z,12.54
2023-05-15T02:25:10.340Z,12.52
2023-05-15T02:26:10.364Z,12.54
2023-05-15T02:27:10.386Z,12.46
2023-05-15T02:28:10.408Z,12.41
2023-05-15T02:29:10.431Z,12.39
2023-05-15T02:30:10.459Z,12.32
2023-05-15T02:31:10.478Z,12.37
2023-05-15T02:32:10.521Z,12.24
2023-05-15T02:33:10.527Z,12.12
2023-05-15T02:34:10.551Z,12.24
2023-05-15T02:35:10.593Z,12.14
2023-05-15T02:36:10.595Z,12.14
2023-05-15T02:37:10.618Z,12.09
2023-05-15T02:38:10.642Z,12.14
2023-05-15T02:39:10.666Z,12.16
2023-05-15T02:40:10.684Z,12.14
2023-05-15T02:41:10.713Z,12.13
2023-05-15T02:42:10.736Z,12.13
2023-05-15T02:43:10.758Z,12.21
2023-05-15T02:44:10.783Z,12.23
2023-05-15T02:45:10.839Z,12.13
2023-05-15T02:46:10.890Z,12.14
2023-05-15T02:47:10.849Z,12.20
2023-05-15T02:48:10.917Z,12.27
2023-05-15T02:49:10.897Z,12.16
2023-05-15T02:50:10.930Z,12.24
2023-05-15T02:51:10.946Z,12.28
2023-05-15T02:52:10.966Z,12.24
2023-05-15T02:53:11.000Z,12.17
2023-05-15T02:54:11.011Z,12.21
2023-05-15T02:55:11.046Z,12.17
2023-05-15T02:56:11.065Z,12.21
2023-05-15T02:57:11.094Z,12.21
2023-05-15T02:58:11.102Z,12.20
2023-05-15T02:59:11.120Z,12.13
2023-05-15T03:00:11.147Z,12.13
2023-05-15T03:01:11.184Z,12.13
2023-05-15T03:02:11.191Z,12.13
2023-05-15T03:03:11.241Z,12.05
2023-05-15T03:04:11.286Z,12.12
2023-05-15T03:05:11.282Z,12.04
2023-05-15T03:06:11.284Z,12.02
2023-05-15T03:07:11.313Z,11.98
2023-05-15T03:08:11.335Z,12.07
2023-05-15T03:09:11.366Z,12.02
2023-05-15T03:10:11.377Z,12.12
2023-05-15T03:11:11.407Z,12.01
2023-05-15T03:12:11.420Z,12.04
2023-05-15T03:13:11.452Z,12.01
2023-05-15T03:14:11.470Z,12.07
2023-05-15T03:15:11.509Z,11.98
2023-05-15T03:16:11.516Z,12.01
2023-05-15T03:17:11.647Z,11.98
2023-05-15T03:18:11.654Z,11.98
2023-05-15T03:19:11.636Z,11.98
2023-05-15T03:20:11.610Z,11.88
2023-05-15T03:21:11.632Z,11.90
2023-05-15T03:22:11.658Z,11.83
2023-05-15T03:23:11.684Z,11.85
2023-05-15T03:24:11.710Z,11.91
2023-05-15T03:25:11.742Z,11.82
2023-05-15T03:26:11.749Z,11.91
2023-05-15T03:27:11.775Z,11.88
2023-05-15T03:28:11.789Z,11.82
2023-05-15T03:29:11.826Z,11.76
2023-05-15T03:30:11.855Z,11.76
2023-05-15T03:31:11.907Z,11.76
2023-05-15T03:32:11.894Z,11.73
2023-05-15T03:33:11.911Z,11.70
2023-05-15T03:34:11.929Z,11.73
2023-05-15T03:35:11.954Z,11.76
2023-05-15T03:36:11.976Z,11.73
2023-05-15T03:37:12.000Z,11.72
2023-05-15T03:38:12.023Z,11.73
2023-05-15T03:39:12.043Z,11.76
2023-05-15T03:40:12.067Z,11.70
2023-05-15T03:41:12.093Z,11.76
2023-05-15T03:42:12.114Z,11.76
2023-05-15T03:43:12.137Z,11.69
2023-05-15T03:44:12.160Z,11.78
2023-05-15T03:45:12.182Z,11.73
2023-05-15T03:46:12.788Z,11.75
2023-05-15T03:47:12.228Z,11.79
2023-05-15T03:48:12.251Z,11.67
2023-05-15T03:49:12.274Z,11.85
2023-05-15T03:50:12.307Z,11.70
2023-05-15T03:51:12.319Z,11.85
2023-05-15T03:52:12.341Z,11.82
2023-05-15T03:53:12.377Z,11.85
2023-05-15T03:54:12.392Z,11.90
2023-05-15T03:55:12.411Z,11.91
2023-05-15T03:56:12.436Z,11.96
2023-05-15T03:57:12.460Z,12.05
2023-05-15T03:58:12.481Z,12.07
2023-05-15T03:59:12.505Z,12.10
2023-05-15T04:00:12.538Z,12.27
2023-05-15T04:01:12.554Z,12.31
2023-05-15T04:02:12.652Z,12.50
2023-05-15T04:03:12.840Z,12.64
2023-05-15T04:04:12.621Z,12.72
2023-05-15T04:05:12.700Z,12.87
2023-05-15T04:06:12.671Z,13.00
2023-05-15T04:07:12.689Z,13.17
2023-05-15T04:08:12.712Z,13.26
2023-05-15T04:09:12.744Z,13.38
2023-05-15T04:10:12.761Z,13.52
2023-05-15T04:11:12.787Z,13.66
2023-05-15T04:12:12.808Z,13.69
2023-05-15T04:13:12.829Z,13.75
2023-05-15T04:14:12.855Z,13.87
2023-05-15T04:15:12.884Z,13.88
2023-05-15T04:16:12.944Z,14.02
2023-05-15T04:17:12.929Z,14.04
2023-05-15T04:18:12.960Z,14.27
2023-05-15T04:19:13.086Z,14.39
2023-05-15T04:20:12.998Z,14.54
2023-05-15T04:21:13.018Z,14.60
2023-05-15T04:22:13.045Z,14.72
2023-05-15T04:23:13.067Z,14.80
2023-05-15T04:24:13.090Z,14.92
2023-05-15T04:25:13.115Z,14.89
2023-05-15T04:26:13.139Z,14.96
2023-05-15T04:27:13.252Z,14.92
2023-05-15T04:28:13.201Z,15.07
2023-05-15T04:29:13.230Z,15.17
2023-05-15T04:30:13.236Z,15.21
2023-05-15T04:31:13.270Z,15.43
2023-05-15T04:32:13.337Z,15.53
2023-05-15T04:33:13.355Z,15.65
2023-05-15T04:34:13.334Z,15.80
2023-05-15T04:35:13.431Z,15.90
2023-05-15T04:36:13.385Z,16.09
2023-05-15T04:37:13.404Z,16.11
2023-05-15T04:38:13.434Z,16.25
2023-05-15T04:39:13.454Z,16.35
2023-05-15T04:40:13.483Z,16.43
2023-05-15T04:41:13.508Z,16.63
2023-05-15T04:42:13.536Z,16.71
2023-05-15T04:43:13.563Z,16.78
2023-05-15T04:44:13.594Z,17.00
2023-05-15T04:45:13.617Z,17.11
2023-05-15T04:46:13.695Z,17.14
2023-05-15T04:47:13.660Z,17.15
2023-05-15T04:48:13.686Z,17.07
2023-05-15T04:49:13.712Z,17.07
2023-05-15T04:50:13.736Z,17.08
2023-05-15T04:51:13.769Z,17.16
2023-05-15T04:52:13.785Z,17.25
2023-05-15T04:53:13.815Z,17.59
2023-05-15T04:54:13.840Z,17.84
2023-05-15T04:55:13.865Z,17.79
2023-05-15T04:56:13.898Z,17.96
2023-05-15T04:57:13.917Z,17.99
2023-05-15T04:58:13.947Z,17.99
2023-05-15T04:59:13.978Z,18.15
2023-05-15T05:00:14.005Z,18.26
2023-05-15T05:01:14.074Z,18.20
2023-05-15T05:02:14.064Z,18.26
2023-05-15T05:03:14.202Z,18.44
2023-05-15T05:04:14.204Z,18.48
2023-05-15T05:05:14.136Z,18.55
2023-05-15T05:06:14.161Z,18.75
2023-05-15T05:07:14.189Z,18.82
2023-05-15T05:08:14.223Z,18.87
2023-05-15T05:09:14.241Z,18.87
2023-05-15T05:10:14.266Z,18.85
2023-05-15T05:11:14.311Z,18.92
2023-05-15T05:12:14.325Z,18.99
2023-05-15T05:13:14.352Z,19.00
2023-05-15T05:14:14.382Z,19.07
2023-05-15T05:15:14.408Z,19.21
2023-05-15T05:16:14.469Z,19.28
2023-05-15T05:17:14.465Z,19.33
2023-05-15T05:18:14.494Z,19.22
2023-05-15T05:19:14.574Z,18.98
2023-05-15T05:20:14.553Z,18.85
2023-05-15T05:21:14.574Z,18.58
2023-05-15T05:22:14.604Z,18.39
2023-05-15T05:23:14.625Z,18.18
2023-05-15T05:24:14.659Z,18.07
2023-05-15T05:25:14.686Z,17.93
2023-05-15T05:26:14.713Z,17.72
2023-05-15T05:27:14.742Z,17.56
2023-05-15T05:28:14.767Z,17.41
2023-05-15T05:29:14.800Z,17.28
2023-05-15T05:30:14.836Z,17.21
2023-05-15T05:31:14.875Z,17.00
2023-05-15T05:32:14.899Z,17.06
2023-05-15T05:33:14.905Z,17.03
2023-05-15T05:34:14.932Z,16.85
2023-05-15T05:35:14.959Z,16.83
2023-05-15T05:36:14.983Z,16.86
2023-05-15T05:37:15.016Z,16.76
2023-05-15T05:38:15.038Z,16.68
2023-05-15T05:39:15.074Z,16.63
2023-05-15T05:40:15.095Z,16.52
2023-05-15T05:41:15.160Z,16.57
2023-05-15T05:42:15.148Z,16.67
2023-05-15T05:43:15.173Z,16.79
2023-05-15T05:44:15.194Z,16.88
2023-05-15T05:45:15.227Z,17.08
2023-05-15T05:46:15.262Z,17.44
2023-05-15T05:47:15.305Z,17.66
2023-05-15T05:48:15.310Z,17.97
2023-05-15T05:49:15.330Z,18.26
2023-05-15T05:50:15.362Z,18.51
2023-05-15T05:51:15.392Z,18.81
2023-05-15T05:52:15.417Z,19.14
2023-05-15T05:53:15.445Z,19.40
2023-05-15T05:54:15.475Z,19.68
2023-05-15T05:55:15.516Z,20.01
2023-05-15T05:56:15.538Z,20.26
2023-05-15T05:57:15.555Z,20.42
2023-05-15T05:58:24.837Z,20.59
2023-05-15T05:59:15.617Z,20.87
2023-05-15T06:00:15.649Z,21.14
2023-05-15T06:01:15.671Z,21.27
2023-05-15T06:02:15.774Z,21.46
2023-05-15T06:03:15.785Z,21.54
2023-05-15T06:04:17.576Z,21.46
2023-05-15T06:05:15.838Z,21.32
2023-05-15T06:06:15.819Z,21.25
2023-05-15T06:07:15.862Z,21.27
2023-05-15T06:08:15.885Z,21.29
2023-05-15T06:09:15.912Z,21.43
2023-05-15T06:10:15.945Z,21.54
2023-05-15T06:11:15.970Z,21.68
2023-05-15T06:12:16.029Z,21.83
2023-05-15T06:13:16.030Z,22.02
2023-05-15T06:14:16.247Z,21.84
2023-05-15T06:15:16.091Z,21.64
2023-05-15T06:16:16.127Z,21.19
2023-05-15T06:17:16.198Z,20.91
2023-05-15T06:18:16.189Z,20.72
2023-05-15T06:19:16.285Z,20.58
2023-05-15T06:20:16.254Z,20.62
2023-05-15T06:21:16.283Z,20.92
2023-05-15T06:22:16.332Z,21.06
2023-05-15T06:23:16.343Z,21.32
2023-05-15T06:24:16.376Z,21.49
2023-05-15T06:25:16.413Z,21.56
2023-05-15T06:26:16.441Z,21.59
2023-05-15T06:27:16.470Z,21.65
2023-05-15T06:28:16.494Z,21.80
2023-05-15T06:29:16.531Z,21.90
2023-05-15T06:30:16.668Z,22.00
2023-05-15T06:31:16.641Z,22.00
2023-05-15T06:32:16.625Z,21.98
2023-05-15T06:33:16.694Z,22.17
2023-05-15T06:34:16.697Z,22.22
2023-05-15T06:35:16.765Z,22.24
2023-05-15T06:36:16.766Z,22.24
2023-05-15T06:37:16.788Z,22.21
2023-05-15T06:38:16.822Z,22.30
2023-05-15T06:39:16.854Z,22.45
2023-05-15T06:40:16.884Z,22.65
2023-05-15T06:41:16.916Z,22.77
2023-05-15T06:42:16.950Z,22.86
2023-05-15T06:43:17.022Z,22.82
2023-05-15T06:44:17.025Z,22.83
2023-05-15T06:45:17.050Z,23.02
2023-05-15T06:46:17.257Z,23.05
2023-05-15T06:47:17.146Z,23.28
2023-05-15T06:48:17.187Z,23.22
2023-05-15T06:49:17.185Z,23.17
2023-05-15T06:50:17.240Z,23.43
2023-05-15T06:51:17.253Z,23.48
2023-05-15T06:52:17.288Z,23.61
2023-05-15T06:53:17.320Z,23.47
2023-05-15T06:54:17.353Z,23.32
2023-05-15T06:55:17.389Z,23.19
2023-05-15T06:56:17.421Z,23.12
2023-05-15T06:57:17.454Z,23.04
2023-05-15T06:58:17.495Z,22.90
2023-05-15T06:59:17.530Z,22.67
2023-05-15T07:00:17.564Z,22.43
2023-05-15T07:01:17.627Z,22.40
2023-05-15T07:02:17.808Z,22.20
2023-05-15T07:03:17.660Z,22.20
2023-05-15T07:04:17.728Z,22.06
2023-05-15T07:05:17.730Z,22.03
2023-05-15T07:06:17.763Z,22.05
2023-05-15T07:07:17.794Z,22.22
2023-05-15T07:08:17.825Z,22.22
2023-05-15T07:09:17.859Z,22.33
2023-05-15T07:10:17.924Z,22.30
2023-05-15T07:11:17.933Z,22.10
2023-05-15T07:12:17.967Z,22.09
2023-05-15T07:13:17.996Z,22.17
2023-05-15T07:14:18.030Z,22.02
2023-05-15T07:15:18.073Z,21.99
2023-05-15T07:16:18.097Z,21.88
2023-05-15T07:17:18.145Z,21.62
2023-05-15T07:18:18.217Z,21.53
2023-05-15T07:19:18.274Z,21.37
2023-05-15T07:20:18.239Z,21.29
2023-05-15T07:21:18.259Z,21.19
2023-05-15T07:22:18.291Z,21.10
2023-05-15T07:23:18.324Z,20.97
2023-05-15T07:24:18.357Z,20.91
2023-05-15T07:25:18.388Z,20.84
2023-05-15T07:26:28.740Z,20.85
2023-05-15T07:27:18.449Z,20.62
2023-05-15T07:28:18.479Z,20.55
2023-05-15T07:29:18.508Z,20.39
2023-05-15T07:30:18.563Z,20.48
2023-05-15T07:31:18.628Z,20.36
2023-05-15T07:32:18.724Z,20.26
2023-05-15T07:33:18.633Z,20.02
2023-05-15T07:34:18.694Z,19.94
2023-05-15T07:35:18.694Z,19.88
2023-05-15T07:36:18.727Z,19.83
2023-05-15T07:37:18.755Z,19.91
2023-05-15T07:38:18.861Z,19.86
2023-05-15T07:39:18.871Z,19.98
2023-05-15T07:40:18.848Z,20.14
2023-05-15T07:41:18.875Z,20.03
2023-05-15T07:42:18.916Z,20.05
2023-05-15T07:43:18.948Z,20.10
2023-05-15T07:44:18.993Z,20.21
2023-05-15T07:45:19.049Z,20.26
2023-05-15T07:46:19.096Z,20.26
2023-05-15T07:47:19.050Z,20.29
2023-05-15T07:48:19.083Z,20.28
2023-05-15T07:49:19.113Z,20.32
2023-05-15T07:50:19.184Z,20.43
2023-05-15T07:51:19.180Z,20.58
2023-05-15T07:52:19.356Z,20.69
2023-05-15T07:53:19.226Z,20.84
2023-05-15T07:54:19.269Z,21.04
2023-05-15T07:55:19.301Z,20.95
2023-05-15T07:56:19.320Z,20.85
2023-05-15T07:57:19.350Z,20.74
2023-05-15T07:58:19.379Z,20.55
2023-05-15T07:59:19.436Z,20.38
2023-05-15T08:00:19.434Z,20.35
2023-05-15T08:01:19.468Z,20.14
2023-05-15T08:02:19.539Z,20.13
2023-05-15T08:03:19.768Z,19.98
2023-05-15T08:04:19.646Z,19.87
2023-05-15T08:05:19.589Z,19.80
2023-05-15T08:06:19.863Z,19.69
2023-05-15T08:07:19.659Z,19.61
2023-05-15T08:08:19.673Z,19.41
2023-05-15T08:09:19.718Z,19.31
2023-05-15T08:10:19.734Z,19.21
2023-05-15T08:11:19.765Z,19.26
2023-05-15T08:12:19.788Z,19.07
2023-05-15T08:13:19.826Z,19.00
2023-05-15T08:14:19.887Z,18.91
2023-05-15T08:15:19.894Z,18.94
2023-05-15T08:16:19.934Z,19.04
2023-05-15T08:17:19.943Z,19.21
2023-05-15T08:18:19.967Z,19.21
2023-05-15T08:19:20.110Z,19.04
2023-05-15T08:20:20.049Z,18.90
2023-05-15T08:21:20.050Z,18.76
2023-05-15T08:22:20.082Z,18.66
2023-05-15T08:23:20.110Z,18.67
2023-05-15T08:24:20.141Z,18.75
2023-05-15T08:25:20.172Z,18.69
2023-05-15T08:26:20.192Z,18.80
2023-05-15T08:27:20.225Z,18.87
2023-05-15T08:28:20.252Z,18.95
2023-05-15T08:29:20.284Z,19.02
2023-05-15T08:30:20.307Z,18.95
2023-05-15T08:31:20.414Z,19.08
2023-05-15T08:32:20.364Z,19.23
2023-05-15T08:33:20.399Z,19.26
2023-05-15T08:34:20.425Z,19.31
2023-05-15T08:35:20.548Z,19.32
2023-05-15T08:36:20.585Z,19.29
2023-05-15T08:37:20.508Z,19.29
2023-05-15T08:38:20.540Z,19.29
2023-05-15T08:39:20.568Z,19.37
2023-05-15T08:40:25.669Z,19.48
2023-05-15T08:41:32.693Z,19.58
2023-05-15T08:42:20.657Z,19.65
2023-05-15T08:43:20.680Z,19.66
2023-05-15T08:44:20.729Z,19.47
2023-05-15T08:45:20.737Z,19.39
2023-05-15T08:46:20.854Z,19.26
2023-05-15T08:47:20.813Z,19.11
2023-05-15T08:48:20.870Z,18.95
2023-05-15T08:49:20.855Z,19.07
2023-05-15T08:50:20.895Z,18.98
2023-05-15T08:51:20.908Z,18.90
2023-05-15T08:52:20.936Z,18.91
2023-05-15T08:53:20.976Z,18.94
2023-05-15T08:54:21.012Z,19.08
2023-05-15T08:55:21.022Z,18.99
2023-05-15T08:56:21.047Z,19.07
2023-05-15T08:57:21.084Z,19.10
2023-05-15T08:58:21.110Z,19.13
2023-05-15T08:59:21.148Z,19.16
2023-05-15T09:00:21.179Z,19.21
2023-05-15T09:01:21.203Z,19.21
2023-05-15T09:02:21.223Z,19.23
2023-05-15T09:03:21.331Z,19.31
2023-05-15T09:04:21.279Z,19.23
2023-05-15T09:05:21.319Z,19.28
2023-05-15T09:06:21.347Z,19.36
2023-05-15T09:07:21.365Z,19.26
2023-05-15T09:08:21.390Z,19.33
2023-05-15T09:09:21.421Z,19.25
2023-05-15T09:10:21.461Z,19.25
2023-05-15T09:11:21.478Z,19.23
2023-05-15T09:12:21.506Z,19.29
2023-05-15T09:13:21.545Z,19.26
2023-05-15T09:14:28.722Z,19.36
2023-05-15T09:16:26.159Z,19.46
2023-05-15T09:17:25.664Z,19.55
2023-05-15T09:19:18.713Z,19.74
2023-05-15T09:20:18.639Z,19.71
2023-05-15T09:22:23.247Z,19.63
2023-05-15T09:23:22.699Z,19.63
2023-05-15T09:25:27.009Z,19.73
2023-05-15T09:26:26.754Z,19.88
2023-05-15T09:28:20.748Z,20.03
2023-05-15T09:29:20.206Z,20.16
2023-05-15T09:30:20.235Z,20.14
2023-05-15T09:31:20.297Z,20.39
2023-05-15T09:32:20.387Z,20.58
2023-05-15T09:33:20.325Z,20.62
2023-05-15T09:34:20.351Z,20.59
2023-05-15T09:35:20.383Z,20.73
2023-05-15T09:36:20.416Z,20.87
2023-05-15T09:37:20.449Z,21.06
2023-05-15T09:38:20.469Z,21.07
2023-05-15T09:39:20.512Z,21.17
2023-05-15T09:40:20.546Z,21.01
2023-05-15T09:41:20.572Z,21.10
2023-05-15T09:42:20.639Z,21.10
2023-05-15T09:43:20.622Z,20.97
2023-05-15T09:44:21.771Z,20.91
2023-05-15T09:45:20.680Z,20.87
2023-05-15T09:46:20.829Z,20.58
2023-05-15T09:47:20.917Z,20.47
2023-05-15T09:48:20.809Z,20.29
2023-05-15T09:49:20.816Z,20.21
2023-05-15T09:50:20.850Z,20.03
2023-05-15T09:51:20.863Z,20.02
2023-05-15T09:52:20.965Z,19.94
2023-05-15T09:53:21.341Z,19.88
2023-05-15T09:54:20.969Z,19.83
2023-05-15T09:55:20.993Z,19.69
2023-05-15T09:56:21.031Z,19.62
2023-05-15T09:57:21.074Z,19.48
2023-05-15T09:58:21.080Z,19.50
2023-05-15T09:59:21.097Z,19.47
2023-05-15T10:00:21.135Z,19.50
2023-05-15T10:01:21.221Z,19.40
2023-05-15T10:02:21.239Z,19.48
2023-05-15T10:03:21.247Z,19.47
2023-05-15T10:04:21.245Z,19.36
2023-05-15T10:05:28.647Z,19.23
2023-05-15T10:06:21.316Z,19.25
2023-05-15T10:07:21.328Z,19.28
2023-05-15T10:08:21.361Z,19.33
2023-05-15T10:09:21.387Z,19.32
2023-05-15T10:10:21.415Z,19.33
2023-05-15T10:11:21.447Z,19.37
2023-05-15T10:12:21.514Z,19.32
2023-05-15T10:13:21.604Z,19.18
2023-05-15T10:14:21.528Z,19.10
2023-05-15T10:15:21.559Z,19.00
2023-05-15T10:16:21.641Z,19.00
2023-05-15T10:17:21.657Z,19.06
2023-05-15T10:18:21.680Z,19.21
2023-05-15T10:19:21.779Z,19.26
2023-05-15T10:20:21.701Z,19.25
2023-05-15T10:21:21.722Z,19.25
2023-05-15T10:22:21.759Z,19.23
2023-05-15T10:23:21.783Z,19.26
2023-05-15T10:24:21.812Z,19.31
2023-05-15T10:25:21.838Z,19.32
2023-05-15T10:26:21.873Z,19.46
2023-05-15T10:27:21.899Z,19.58
2023-05-15T10:28:22.712Z,19.54
2023-05-15T10:29:21.956Z,19.48
2023-05-15T10:30:22.016Z,19.44
2023-05-15T10:31:22.055Z,19.46
2023-05-15T10:32:22.084Z,19.50
2023-05-15T10:33:22.070Z,19.51
2023-05-15T10:34:22.103Z,19.59
2023-05-15T10:35:22.121Z,19.66
2023-05-15T10:36:22.155Z,19.73
2023-05-15T10:37:22.173Z,19.77
2023-05-15T10:38:22.208Z,19.87
2023-05-15T10:39:22.273Z,19.69
2023-05-15T10:40:22.264Z,19.69
2023-05-15T10:41:22.309Z,19.59
2023-05-15T10:42:22.330Z,19.68
2023-05-15T10:43:22.368Z,19.68
2023-05-15T10:44:22.380Z,19.59
2023-05-15T10:45:22.405Z,19.50
2023-05-15T10:46:22.484Z,19.47
2023-05-15T10:47:22.533Z,19.39
2023-05-15T10:48:22.491Z,19.39
2023-05-15T10:49:22.516Z,19.48
2023-05-15T10:50:22.552Z,19.54
2023-05-15T10:51:22.574Z,19.65
2023-05-15T10:52:22.616Z,19.71
2023-05-15T10:53:22.628Z,19.92
2023-05-15T10:54:22.679Z,19.94
2023-05-15T10:55:22.712Z,19.99
2023-05-15T10:56:22.759Z,20.05
2023-05-15T10:57:22.744Z,20.13
2023-05-15T10:58:22.781Z,20.23
2023-05-15T10:59:22.805Z,20.20
2023-05-15T11:00:22.975Z,20.14
2023-05-15T11:01:22.875Z,20.10
2023-05-15T11:02:22.889Z,19.99
2023-05-15T11:03:22.936Z,20.01
2023-05-15T11:04:23.015Z,19.87
2023-05-15T11:05:22.966Z,19.81
2023-05-15T11:06:23.001Z,19.80
2023-05-15T11:07:23.028Z,19.69
2023-05-15T11:08:23.064Z,19.73
2023-05-15T11:09:23.297Z,19.62
2023-05-15T11:10:23.219Z,19.74
2023-05-15T11:11:23.139Z,19.66
2023-05-15T11:12:23.184Z,19.73
2023-05-15T11:13:23.209Z,19.65
2023-05-15T11:14:23.224Z,19.87
2023-05-15T11:15:23.279Z,19.96
2023-05-15T11:16:23.315Z,19.98
2023-05-15T11:17:23.322Z,20.16
2023-05-15T11:18:23.343Z,20.17
2023-05-15T11:19:23.369Z,20.10
2023-05-15T11:20:23.506Z,20.20
2023-05-15T11:21:23.440Z,20.18
2023-05-15T11:22:23.537Z,20.29
2023-05-15T11:23:23.495Z,20.33
2023-05-15T11:24:23.513Z,20.32
2023-05-15T11:25:23.538Z,20.31
2023-05-15T11:26:23.584Z,20.50
2023-05-15T11:27:23.594Z,20.55
2023-05-15T11:28:23.636Z,20.50
2023-05-15T11:29:23.665Z,20.55
2023-05-15T11:30:23.711Z,20.42
2023-05-15T11:31:23.775Z,20.26
2023-05-15T11:32:23.745Z,20.24
2023-05-15T11:33:23.784Z,20.16
2023-05-15T11:34:23.796Z,20.31
2023-05-15T11:35:23.862Z,20.16
2023-05-15T11:36:23.868Z,20.13
2023-05-15T11:37:23.883Z,20.17
2023-05-15T11:38:23.933Z,20.29
2023-05-15T11:39:23.953Z,20.33
2023-05-15T11:40:24.141Z,20.35
2023-05-15T11:41:24.001Z,20.52
2023-05-15T11:42:24.031Z,20.48
2023-05-15T11:43:24.058Z,20.57
2023-05-15T11:44:24.089Z,20.61
2023-05-15T11:45:24.119Z,20.70
2023-05-15T11:46:24.148Z,20.85
2023-05-15T11:47:24.173Z,20.85
2023-05-15T11:48:24.209Z,20.87
2023-05-15T11:49:24.238Z,20.92
2023-05-15T11:50:24.384Z,20.91
2023-05-15T11:51:24.292Z,21.03
2023-05-15T11:52:24.315Z,20.94
2023-05-15T11:53:24.348Z,20.84
2023-05-15T11:54:24.379Z,20.91
2023-05-15T11:55:24.437Z,20.84
2023-05-15T11:56:24.502Z,20.79
2023-05-15T11:57:24.464Z,20.87
2023-05-15T11:58:24.488Z,20.85
2023-05-15T11:59:24.521Z,20.80
2023-05-15T12:00:24.794Z,20.70
2023-05-15T12:01:24.615Z,20.59
2023-05-15T12:02:24.649Z,20.47
2023-05-15T12:03:24.738Z,20.52
2023-05-15T12:04:24.872Z,20.58
2023-05-15T12:05:24.705Z,20.79
2023-05-15T12:06:24.726Z,20.85
2023-05-15T12:07:24.754Z,20.82
2023-05-15T12:08:24.780Z,20.84
2023-05-15T12:09:24.808Z,20.84
2023-05-15T12:10:25.148Z,20.88
2023-05-15T12:11:25.378Z,20.85
2023-05-15T12:12:24.896Z,20.77
2023-05-15T12:13:24.926Z,20.70
2023-05-15T12:14:24.953Z,20.76
2023-05-15T12:15:24.981Z,20.85
2023-05-15T12:16:25.093Z,20.80
2023-05-15T12:17:25.069Z,20.89
2023-05-15T12:18:25.073Z,20.88
2023-05-15T12:19:25.118Z,20.92
2023-05-15T12:20:25.359Z,20.91
2023-05-15T12:21:25.172Z,20.87
2023-05-15T12:22:25.190Z,20.79
2023-05-15T12:23:25.211Z,20.87
2023-05-15T12:24:25.249Z,20.91
2023-05-15T12:25:25.268Z,20.91
2023-05-15T12:26:25.298Z,20.88
2023-05-15T12:27:25.327Z,20.84
2023-05-15T12:28:25.370Z,21.01
2023-05-15T12:29:25.379Z,21.09
2023-05-15T12:30:25.667Z,21.21
2023-05-15T12:31:25.450Z,21.28
2023-05-15T12:32:25.497Z,21.31
2023-05-15T12:33:25.504Z,21.42
2023-05-15T12:34:25.532Z,21.58
2023-05-15T12:35:25.564Z,21.69
2023-05-15T12:36:25.582Z,21.80
2023-05-15T12:37:25.656Z,21.77
2023-05-15T12:38:25.644Z,21.75
2023-05-15T12:39:25.673Z,21.71
2023-05-15T12:40:25.912Z,21.61
2023-05-15T12:41:25.733Z,21.64
2023-05-15T12:42:25.792Z,21.56
2023-05-15T12:43:25.788Z,21.56
2023-05-15T12:44:25.816Z,21.50
2023-05-15T12:45:25.849Z,21.46
2023-05-15T12:46:25.975Z,21.58
2023-05-15T12:47:25.942Z,21.61
2023-05-15T12:48:25.930Z,21.53
2023-05-15T12:49:26.001Z,21.34
2023-05-15T12:50:26.253Z,21.27
2023-05-15T12:51:26.035Z,21.43
2023-05-15T12:52:26.046Z,21.34
2023-05-15T12:53:26.093Z,21.31
2023-05-15T12:54:26.117Z,21.42
2023-05-15T12:55:26.137Z,21.29
2023-05-15T12:56:26.162Z,21.34
2023-05-15T12:57:26.193Z,21.25